Time;durP1;ratioP1;P1;durP2;ratioP2;P2;SDS_P1;SDS_P2;PMS_P1;PMS_P2;Temp;Humidity;BMP_temperature;BMP_pressure;BME280_temperature;BME280_humidity;BME280_pressure;Samples;Min_cycle;Max_cycle;Signal;HPM_P1;HPM_P2
2021/12/20 00:01:02;;;;;;;24.40;14.43;;;5.00;69.40;;;;;;4987021;28;20740;-79
2021/12/20 00:03:28;;;;;;;26.07;15.23;;;5.10;68.70;;;;;;4981989;28;20027;-79
2021/12/20 00:05:54;;;;;;;23.70;14.20;;;5.00;68.40;;;;;;4992883;28;20031;-79
2021/12/20 00:08:20;;;;;;;22.90;14.43;;;5.00;68.40;;;;;;4981459;28;20413;-79
2021/12/20 00:10:45;;;;;;;22.33;13.73;;;5.10;69.10;;;;;;4969049;28;20033;-79
2021/12/20 00:13:11;;;;;;;21.20;12.77;;;4.90;68.10;;;;;;4983526;28;20031;-79
2021/12/20 00:15:37;;;;;;;20.83;12.50;;;5.00;68.30;;;;;;4983924;28;20031;-79
2021/12/20 00:18:03;;;;;;;21.97;14.40;;;5.00;68.30;;;;;;4981937;28;20081;-79
2021/12/20 00:20:28;;;;;;;19.00;12.33;;;5.00;68.10;;;;;;4995610;28;20112;-79
2021/12/20 00:22:55;;;;;;;22.70;13.93;;;5.00;67.90;;;;;;4964385;28;20047;-79
2021/12/20 00:25:21;;;;;;;23.30;13.17;;;5.00;68.10;;;;;;4970791;28;20034;-79
2021/12/20 00:27:47;;;;;;;22.20;13.43;;;5.00;67.80;;;;;;4963500;28;20037;-79
2021/12/20 00:30:12;;;;;;;21.50;14.10;;;5.00;67.70;;;;;;4982828;28;20027;-79
2021/12/20 00:32:39;;;;;;;23.10;14.03;;;4.90;67.70;;;;;;4986931;28;20037;-79
2021/12/20 00:35:06;;;;;;;24.93;15.47;;;4.80;67.60;;;;;;4966237;28;20026;-79
2021/12/20 00:40:20;;;;;;;22.43;13.77;;;4.80;67.60;;;;;;5004014;28;20040;-79
2021/12/20 00:42:57;;;;;;;26.87;15.23;;;4.80;67.50;;;;;;4975072;28;20041;-79
2021/12/20 00:45:26;;;;;;;22.33;13.27;;;4.80;67.40;;;;;;4968230;28;20034;-79
2021/12/20 00:47:52;;;;;;;22.97;13.47;;;4.70;67.30;;;;;;4982569;28;20034;-79
2021/12/20 00:50:20;;;;;;;24.77;14.67;;;4.70;67.40;;;;;;4992304;28;20042;-79
2021/12/20 00:52:47;;;;;;;24.00;14.23;;;4.70;67.50;;;;;;4990564;28;20039;-79
2021/12/20 00:55:18;;;;;;;22.80;13.57;;;4.70;67.50;;;;;;4983923;28;20450;-79
2021/12/20 00:57:46;;;;;;;23.70;14.17;;;4.70;67.40;;;;;;5002760;28;20026;-79
2021/12/20 01:00:14;;;;;;;24.03;13.93;;;4.60;67.40;;;;;;4969243;28;20058;-79
2021/12/20 01:02:40;;;;;;;24.80;13.47;;;4.60;67.30;;;;;;4975477;28;20031;-79
2021/12/20 01:05:06;;;;;;;23.23;13.33;;;4.60;67.10;;;;;;4992499;28;20026;-79
2021/12/20 01:07:33;;;;;;;23.30;13.63;;;4.60;67.10;;;;;;4986774;28;20447;-79
2021/12/20 01:10:02;;;;;;;24.70;13.40;;;4.60;67.00;;;;;;4982714;28;20117;-79
2021/12/20 01:12:34;;;;;;;22.47;12.97;;;4.50;67.10;;;;;;4977338;28;20022;-79
2021/12/20 01:15:01;;;;;;;26.47;14.07;;;4.40;67.00;;;;;;4969423;28;20569;-79
2021/12/20 01:17:27;;;;;;;22.83;12.40;;;4.40;67.20;;;;;;4985116;28;20701;-79
2021/12/20 01:19:53;;;;;;;25.27;12.60;;;4.30;67.20;;;;;;4970214;28;20037;-79
2021/12/20 01:22:19;;;;;;;22.80;12.30;;;4.30;67.20;;;;;;4983614;28;20038;-79
2021/12/20 01:24:45;;;;;;;20.47;12.57;;;4.30;67.00;;;;;;4966430;28;20501;-79
2021/12/20 01:27:11;;;;;;;23.93;13.07;;;4.30;67.10;;;;;;4973305;28;20054;-79
2021/12/20 01:29:36;;;;;;;21.60;12.83;;;4.30;66.80;;;;;;4966604;28;20026;-79
2021/12/20 01:32:02;;;;;;;20.53;12.40;;;4.20;67.00;;;;;;4959905;28;20026;-79
2021/12/20 01:34:28;;;;;;;22.20;12.50;;;4.20;66.80;;;;;;4979121;28;20065;-79
2021/12/20 01:36:55;;;;;;;24.17;12.67;;;4.20;66.80;;;;;;4977304;28;22061;-79
2021/12/20 01:39:22;;;;;;;19.83;12.10;;;4.10;66.80;;;;;;4983558;28;20030;-79
2021/12/20 01:41:48;;;;;;;21.13;12.20;;;4.20;66.80;;;;;;4979206;28;20070;-79
2021/12/20 01:44:13;;;;;;;19.97;12.33;;;4.10;66.70;;;;;;4955704;28;20065;-79
2021/12/20 01:46:40;;;;;;;20.13;11.50;;;4.10;66.60;;;;;;4977468;28;20137;-79
2021/12/20 01:49:10;;;;;;;16.63;10.93;;;4.10;66.60;;;;;;4974901;28;20042;-79
2021/12/20 01:54:19;;;;;;;18.20;10.93;;;4.10;66.50;;;;;;4982671;28;20121;-79
2021/12/20 01:56:45;;;;;;;20.27;12.10;;;4.00;66.40;;;;;;4985199;28;20113;-79
2021/12/20 01:59:12;;;;;;;19.03;11.10;;;4.00;66.60;;;;;;4973791;28;20120;-79
2021/12/20 02:01:39;;;;;;;19.07;11.23;;;3.90;66.60;;;;;;4975602;28;20105;-79
2021/12/20 02:04:08;;;;;;;19.10;11.00;;;3.90;66.50;;;;;;4974628;28;20045;-79
2021/12/20 02:06:38;;;;;;;17.80;11.17;;;3.90;66.60;;;;;;4971546;28;20030;-79
2021/12/20 02:09:05;;;;;;;19.33;10.90;;;3.90;66.80;;;;;;4999151;28;20133;-79
2021/12/20 02:11:31;;;;;;;19.80;12.00;;;3.90;66.70;;;;;;4967752;28;20109;-79
2021/12/20 02:13:57;;;;;;;18.77;11.60;;;3.90;66.60;;;;;;4981281;28;20528;-79
2021/12/20 02:16:24;;;;;;;19.47;12.27;;;4.00;66.50;;;;;;4958001;28;20031;-79
2021/12/20 02:18:50;;;;;;;20.93;12.47;;;3.90;66.30;;;;;;4981938;28;20039;-79
2021/12/20 02:21:16;;;;;;;21.93;13.57;;;3.80;66.60;;;;;;5002911;28;20073;-79
2021/12/20 02:23:42;;;;;;;22.17;13.33;;;3.80;66.80;;;;;;4985444;28;20125;-79
2021/12/20 02:26:11;;;;;;;22.63;12.73;;;3.80;67.10;;;;;;4981325;28;20092;-79
2021/12/20 02:28:41;;;;;;;20.07;12.37;;;3.80;67.00;;;;;;4990721;28;20502;-79
2021/12/20 02:39:17;;;;;;;20.10;11.60;;;3.90;66.90;;;;;;4982162;28;20113;-79
2021/12/20 02:41:43;;;;;;;21.40;12.07;;;3.90;66.90;;;;;;4961621;28;20113;-79
2021/12/20 02:44:18;;;;;;;20.17;12.30;;;3.80;66.90;;;;;;4978040;28;20429;-79
2021/12/20 02:49:12;;;;;;;23.03;13.30;;;3.80;67.00;;;;;;4985815;28;20017;-79
2021/12/20 02:51:39;;;;;;;24.40;14.50;;;3.80;67.10;;;;;;4992376;28;20406;-79
2021/12/20 02:54:08;;;;;;;23.23;13.70;;;3.80;67.10;;;;;;4980905;28;20027;-79
2021/12/20 02:56:35;;;;;;;25.23;14.27;;;3.90;67.10;;;;;;4980557;28;20471;-79
2021/12/20 02:59:01;;;;;;;23.67;13.57;;;3.90;66.90;;;;;;4986219;28;20226;-79
2021/12/20 03:01:27;;;;;;;22.40;12.90;;;3.90;66.90;;;;;;4993376;28;20034;-79
2021/12/20 03:03:55;;;;;;;21.00;12.57;;;3.90;66.90;;;;;;4962554;28;20030;-79
2021/12/20 03:06:26;;;;;;;21.30;13.33;;;3.90;67.00;;;;;;4970535;28;20034;-79
2021/12/20 03:08:55;;;;;;;19.47;12.10;;;3.90;67.00;;;;;;4982048;28;20050;-79
2021/12/20 03:11:23;;;;;;;17.40;10.90;;;4.00;67.00;;;;;;4972168;28;20471;-79
2021/12/20 03:13:54;;;;;;;16.40;10.37;;;4.00;66.80;;;;;;4980100;28;20457;-79
2021/12/20 03:16:20;;;;;;;21.13;12.10;;;4.00;66.70;;;;;;4979149;28;20035;-79
2021/12/20 03:18:46;;;;;;;20.43;12.37;;;4.00;66.60;;;;;;4969183;28;20410;-79
2021/12/20 03:21:12;;;;;;;21.97;13.73;;;4.00;66.70;;;;;;4957371;28;20150;-79
2021/12/20 03:23:38;;;;;;;22.20;13.40;;;4.00;66.70;;;;;;4980212;28;20046;-79
2021/12/20 03:26:04;;;;;;;21.63;13.03;;;4.00;66.70;;;;;;4974973;28;20042;-79
2021/12/20 03:28:29;;;;;;;19.57;12.60;;;4.00;66.60;;;;;;4969118;28;20109;-79
2021/12/20 03:30:56;;;;;;;20.07;12.37;;;4.00;67.30;;;;;;4978370;28;20153;-79
2021/12/20 03:33:21;;;;;;;21.20;11.93;;;4.00;66.80;;;;;;4979750;28;20116;-79
2021/12/20 03:35:47;;;;;;;23.20;13.20;;;4.00;66.70;;;;;;4958393;28;20030;-79
2021/12/20 03:38:13;;;;;;;20.67;12.80;;;4.00;66.70;;;;;;4973904;28;20141;-79
2021/12/20 03:40:39;;;;;;;19.20;11.70;;;4.00;66.80;;;;;;4985974;28;20045;-79
2021/12/20 03:43:06;;;;;;;20.53;12.50;;;4.00;66.60;;;;;;4981274;28;20034;-79
2021/12/20 03:45:33;;;;;;;19.90;12.23;;;4.00;66.80;;;;;;4959957;28;20046;-79
2021/12/20 03:47:59;;;;;;;21.80;14.13;;;4.00;66.80;;;;;;4961098;28;20542;-79
2021/12/20 03:50:27;;;;;;;20.93;12.53;;;3.90;66.60;;;;;;4960734;28;20027;-79
2021/12/20 03:52:53;;;;;;;18.00;10.87;;;3.90;66.80;;;;;;4980106;28;20025;-79
2021/12/20 03:55:19;;;;;;;20.33;11.40;;;4.00;66.90;;;;;;4975720;28;20034;-79
2021/12/20 03:57:45;;;;;;;17.57;9.97;;;4.00;66.80;;;;;;4984724;28;20034;-79
2021/12/20 04:00:13;;;;;;;16.60;10.70;;;4.00;66.60;;;;;;4960825;28;20027;-79
2021/12/20 04:02:43;;;;;;;18.57;10.40;;;4.00;66.50;;;;;;4981145;28;20054;-79
2021/12/20 04:05:10;;;;;;;18.40;11.60;;;4.00;66.50;;;;;;4963501;28;20076;-79
2021/12/20 04:07:36;;;;;;;18.53;10.93;;;4.00;66.50;;;;;;4965616;28;20030;-79
2021/12/20 04:10:03;;;;;;;16.90;10.77;;;4.00;66.50;;;;;;4970493;28;20027;-79
2021/12/20 04:12:28;;;;;;;16.10;10.40;;;4.00;66.40;;;;;;4982603;28;20033;-79
2021/12/20 04:14:54;;;;;;;18.87;11.20;;;4.10;66.50;;;;;;4982870;28;20098;-79
2021/12/20 04:17:20;;;;;;;22.23;10.87;;;4.00;66.30;;;;;;4979725;28;20046;-79
2021/12/20 04:19:46;;;;;;;21.53;11.60;;;4.00;66.30;;;;;;4968129;28;20370;-79
2021/12/20 04:22:11;;;;;;;17.57;10.73;;;4.00;66.50;;;;;;4977964;28;20973;-79
2021/12/20 04:24:38;;;;;;;18.67;11.43;;;4.00;66.50;;;;;;4984328;28;20061;-79
2021/12/20 04:27:04;;;;;;;22.00;13.37;;;4.00;66.50;;;;;;4974695;28;20031;-79
2021/12/20 04:29:30;;;;;;;23.03;13.17;;;4.00;66.30;;;;;;4974982;28;20035;-79
2021/12/20 04:31:56;;;;;;;19.87;12.27;;;4.00;66.40;;;;;;4960578;28;20037;-79
2021/12/20 04:34:21;;;;;;;23.60;13.57;;;4.00;66.40;;;;;;4985044;28;20022;-79
2021/12/20 04:36:47;;;;;;;19.50;12.20;;;4.00;66.30;;;;;;4988179;28;20054;-79
2021/12/20 04:39:17;;;;;;;18.90;11.50;;;4.00;66.20;;;;;;4992542;28;20030;-79
2021/12/20 04:41:43;;;;;;;14.97;9.13;;;4.00;66.30;;;;;;4985143;28;20026;-79
2021/12/20 04:44:09;;;;;;;17.23;10.67;;;4.00;66.20;;;;;;4971894;28;20037;-79
2021/12/20 04:46:35;;;;;;;17.90;11.30;;;4.00;66.10;;;;;;4983939;28;20113;-79
2021/12/20 04:49:01;;;;;;;19.90;11.63;;;4.10;66.10;;;;;;4991059;28;20038;-79
2021/12/20 04:51:26;;;;;;;18.00;12.80;;;4.10;66.00;;;;;;4989284;28;20019;-79
2021/12/20 04:53:52;;;;;;;16.47;11.13;;;4.10;66.00;;;;;;4991669;28;20336;-79
2021/12/20 04:56:18;;;;;;;16.43;10.13;;;4.10;65.80;;;;;;4991463;28;20034;-79
2021/12/20 04:58:44;;;;;;;17.93;11.10;;;4.10;65.90;;;;;;4992175;28;20117;-79
2021/12/20 05:01:09;;;;;;;15.30;10.03;;;4.10;66.00;;;;;;4972175;28;20683;-79
2021/12/20 05:03:35;;;;;;;18.00;9.67;;;4.10;65.90;;;;;;4979789;28;20057;-79
2021/12/20 05:06:01;;;;;;;12.83;9.00;;;4.10;65.90;;;;;;4986402;28;20041;-79
2021/12/20 05:08:33;;;;;;;16.07;10.00;;;4.10;65.90;;;;;;4980700;28;20019;-79
2021/12/20 05:11:00;;;;;;;14.55;9.38;;;4.10;65.80;;;;;;4986512;28;20026;-79
2021/12/20 05:13:25;;;;;;;16.63;10.27;;;4.10;65.70;;;;;;4976697;28;20084;-79
2021/12/20 05:15:51;;;;;;;17.13;10.40;;;4.00;66.30;;;;;;4981357;28;20494;-79
2021/12/20 05:18:17;;;;;;;18.67;10.37;;;4.00;65.80;;;;;;4984029;28;20105;-79
2021/12/20 05:20:43;;;;;;;15.83;9.73;;;4.00;65.80;;;;;;4965615;28;20030;-79
2021/12/20 05:23:09;;;;;;;15.70;9.83;;;4.00;65.80;;;;;;4968396;28;20045;-79
2021/12/20 05:25:36;;;;;;;16.13;9.43;;;4.00;65.90;;;;;;4977241;28;20038;-79
2021/12/20 05:28:02;;;;;;;14.37;9.63;;;4.00;65.90;;;;;;4971262;28;20959;-79
2021/12/20 05:30:28;;;;;;;14.40;9.33;;;4.00;65.70;;;;;;4979257;28;20433;-79
2021/12/20 05:32:55;;;;;;;15.77;9.23;;;3.90;65.80;;;;;;4982830;28;20026;-79
2021/12/20 05:35:21;;;;;;;20.20;10.50;;;3.90;65.90;;;;;;4986017;28;20068;-79
2021/12/20 05:37:48;;;;;;;15.60;10.03;;;3.90;65.90;;;;;;4978500;28;20138;-79
2021/12/20 05:40:15;;;;;;;18.73;10.60;;;3.90;65.90;;;;;;4981062;28;20109;-79
2021/12/20 05:42:42;;;;;;;17.07;11.03;;;3.80;65.90;;;;;;4980081;28;20035;-79
2021/12/20 05:45:09;;;;;;;15.70;10.53;;;3.80;66.10;;;;;;4978876;28;20030;-79
2021/12/20 05:47:35;;;;;;;19.97;11.80;;;3.80;66.30;;;;;;4972108;28;20041;-79
2021/12/20 05:50:02;;;;;;;18.17;11.07;;;3.90;66.30;;;;;;4968895;28;20057;-79
2021/12/20 05:52:28;;;;;;;30.47;19.53;;;3.90;66.10;;;;;;4969167;28;20469;-79
2021/12/20 05:54:53;;;;;;;31.70;18.73;;;3.80;66.20;;;;;;4982268;28;20027;-79
2021/12/20 05:57:19;;;;;;;23.43;14.57;;;3.90;67.00;;;;;;4961928;28;20026;-79
2021/12/20 05:59:45;;;;;;;26.13;15.90;;;3.90;66.30;;;;;;4988157;28;20035;-79
2021/12/20 06:02:10;;;;;;;25.83;15.20;;;3.90;66.10;;;;;;4977145;28;20038;-79
2021/12/20 06:04:36;;;;;;;24.80;15.40;;;3.80;66.20;;;;;;4983623;28;20027;-79
2021/12/20 06:07:02;;;;;;;22.10;12.77;;;3.80;66.20;;;;;;4965571;28;20092;-79
2021/12/20 06:09:28;;;;;;;19.83;12.63;;;3.80;66.20;;;;;;4980853;28;20041;-79
2021/12/20 06:11:59;;;;;;;23.40;14.93;;;3.80;66.40;;;;;;4963781;28;20030;-79
2021/12/20 06:14:28;;;;;;;23.20;14.30;;;3.80;66.30;;;;;;4978941;28;20394;-79
2021/12/20 06:16:57;;;;;;;25.37;14.70;;;3.80;66.30;;;;;;4975115;28;20038;-79
2021/12/20 06:19:24;;;;;;;23.73;16.13;;;3.90;66.30;;;;;;4960132;28;20054;-79
2021/12/20 06:21:50;;;;;;;23.07;14.60;;;3.90;66.30;;;;;;4970760;28;20581;-79
2021/12/20 06:24:16;;;;;;;24.53;15.67;;;3.90;66.20;;;;;;4979021;28;20030;-79
2021/12/20 06:26:42;;;;;;;24.13;15.83;;;3.90;66.10;;;;;;4963991;28;20096;-79
2021/12/20 06:29:07;;;;;;;25.97;15.70;;;3.90;66.50;;;;;;4984084;28;20548;-79
2021/12/20 06:31:33;;;;;;;26.03;16.30;;;3.90;66.60;;;;;;4976340;28;20023;-79
2021/12/20 06:33:59;;;;;;;25.73;16.93;;;3.90;66.60;;;;;;4984545;28;20029;-79
2021/12/20 06:36:26;;;;;;;27.03;17.77;;;3.90;66.70;;;;;;4990791;28;20038;-79
2021/12/20 06:38:54;;;;;;;31.13;16.90;;;3.90;66.40;;;;;;4992085;28;20462;-79
2021/12/20 06:41:20;;;;;;;44.47;23.93;;;3.90;66.40;;;;;;4982332;28;20498;-79
2021/12/20 06:43:46;;;;;;;47.17;23.77;;;3.90;66.50;;;;;;4982099;28;20030;-79
2021/12/20 06:46:14;;;;;;;40.83;23.43;;;3.90;66.70;;;;;;4979651;28;20030;-79
2021/12/20 06:48:40;;;;;;;35.60;20.60;;;3.90;66.70;;;;;;4989521;28;20113;-79
2021/12/20 06:51:05;;;;;;;33.83;20.13;;;3.90;66.40;;;;;;4965269;28;20166;-79
2021/12/20 06:53:31;;;;;;;34.77;20.70;;;3.90;66.30;;;;;;4978902;28;20029;-79
2021/12/20 06:55:57;;;;;;;34.63;20.87;;;3.90;66.40;;;;;;4974445;28;20033;-79
2021/12/20 06:58:23;;;;;;;35.23;21.03;;;3.90;66.30;;;;;;4976876;28;20490;-79
2021/12/20 07:00:51;;;;;;;32.03;19.27;;;3.90;66.40;;;;;;4967030;28;20041;-79
2021/12/20 07:03:17;;;;;;;36.20;22.30;;;3.90;66.40;;;;;;4985196;28;20385;-79
2021/12/20 07:05:43;;;;;;;36.43;21.10;;;3.90;66.50;;;;;;4966327;28;20023;-79
2021/12/20 07:08:09;;;;;;;46.03;23.73;;;4.00;66.60;;;;;;4960407;28;20134;-79
2021/12/20 07:10:34;;;;;;;85.70;33.03;;;4.00;66.50;;;;;;4964501;28;20026;-79
2021/12/20 07:13:00;;;;;;;57.80;31.10;;;4.10;66.50;;;;;;4958526;28;20023;-79
2021/12/20 07:15:27;;;;;;;49.27;26.27;;;4.00;66.50;;;;;;4985790;28;20070;-79
2021/12/20 07:17:53;;;;;;;49.80;23.93;;;4.10;66.80;;;;;;4975462;28;20027;-79
2021/12/20 07:20:18;;;;;;;51.60;24.93;;;4.10;66.60;;;;;;4957794;28;20050;-78
2021/12/20 07:22:44;;;;;;;47.33;23.37;;;4.10;66.50;;;;;;4979338;28;20046;-79
2021/12/20 07:25:10;;;;;;;44.33;23.90;;;4.10;66.60;;;;;;4988406;28;20085;-79
2021/12/20 07:27:36;;;;;;;45.50;23.17;;;4.10;66.80;;;;;;4965108;28;20026;-79
2021/12/20 07:30:04;;;;;;;45.00;23.57;;;4.10;66.60;;;;;;4993488;28;20030;-79
2021/12/20 07:32:30;;;;;;;49.63;22.97;;;4.20;66.70;;;;;;4991359;28;20072;-79
2021/12/20 07:34:56;;;;;;;51.93;23.77;;;4.10;66.60;;;;;;4974724;28;20031;-79
2021/12/20 07:37:22;;;;;;;53.13;27.07;;;4.10;67.10;;;;;;4963439;28;20102;-79
2021/12/20 07:39:48;;;;;;;31.47;20.10;;;4.10;67.10;;;;;;4956756;28;20114;-79
2021/12/20 07:42:14;;;;;;;30.80;18.13;;;4.20;66.90;;;;;;4977740;28;20062;-78
2021/12/20 07:44:39;;;;;;;35.10;19.03;;;4.20;66.80;;;;;;4988610;28;20034;-79
2021/12/20 07:47:05;;;;;;;32.23;19.00;;;4.20;66.70;;;;;;4967867;28;20030;-79
2021/12/20 07:49:31;;;;;;;27.60;17.47;;;4.20;66.60;;;;;;4977700;28;20386;-79
2021/12/20 07:51:57;;;;;;;31.00;19.70;;;4.30;66.60;;;;;;4969564;28;20035;-79
2021/12/20 07:54:22;;;;;;;37.93;20.30;;;4.30;66.50;;;;;;4992602;28;20026;-79
2021/12/20 07:56:48;;;;;;;36.87;20.73;;;4.20;66.40;;;;;;4965273;28;20030;-79
2021/12/20 07:59:14;;;;;;;34.63;18.50;;;4.30;66.60;;;;;;4970575;28;20030;-79
2021/12/20 08:01:39;;;;;;;33.37;19.37;;;4.30;66.50;;;;;;4961087;28;20461;-79
2021/12/20 08:04:07;;;;;;;35.83;19.17;;;4.40;66.60;;;;;;4976834;28;20031;-80
2021/12/20 08:06:33;;;;;;;33.70;18.23;;;4.40;66.70;;;;;;4964755;28;20513;-79
2021/12/20 08:08:58;;;;;;;32.80;19.10;;;4.40;66.80;;;;;;4980443;28;20042;-79
2021/12/20 08:11:24;;;;;;;30.43;18.83;;;4.40;66.70;;;;;;4971858;28;20114;-81
2021/12/20 08:13:50;;;;;;;30.87;19.27;;;4.40;66.50;;;;;;4988282;28;20089;-79
2021/12/20 08:16:16;;;;;;;34.37;19.80;;;4.40;66.40;;;;;;4981748;28;20034;-80
2021/12/20 08:18:44;;;;;;;29.47;18.13;;;4.50;66.70;;;;;;4989730;28;20030;-79
2021/12/20 08:21:10;;;;;;;32.43;19.17;;;4.50;66.40;;;;;;4961720;28;20731;-79
2021/12/20 08:23:37;;;;;;;36.10;20.77;;;4.50;66.50;;;;;;4970681;28;20411;-79
2021/12/20 08:26:03;;;;;;;33.37;20.50;;;4.50;66.50;;;;;;4987977;28;20058;-79
2021/12/20 08:28:29;;;;;;;43.23;26.33;;;4.60;66.40;;;;;;4970636;28;20022;-79
2021/12/20 08:30:55;;;;;;;34.73;20.93;;;4.60;66.60;;;;;;4978713;28;20026;-79
2021/12/20 08:33:21;;;;;;;31.43;19.43;;;4.60;66.60;;;;;;4978702;28;20037;-79
2021/12/20 08:35:49;;;;;;;31.90;19.63;;;4.60;67.00;;;;;;4980331;28;20045;-79
2021/12/20 08:38:17;;;;;;;35.47;21.20;;;4.60;66.40;;;;;;4990267;28;20113;-79
2021/12/20 08:40:43;;;;;;;38.33;22.57;;;4.50;66.50;;;;;;4995841;28;20030;-79
2021/12/20 08:43:09;;;;;;;34.57;20.57;;;4.60;66.70;;;;;;4987102;28;20038;-79
2021/12/20 08:45:34;;;;;;;35.17;20.83;;;4.60;66.60;;;;;;4976894;28;20050;-79
2021/12/20 08:48:00;;;;;;;31.10;19.83;;;4.70;66.40;;;;;;4968379;28;20049;-79
2021/12/20 08:50:26;;;;;;;31.37;20.10;;;4.60;66.30;;;;;;4982525;28;20455;-79
2021/12/20 08:52:53;;;;;;;32.70;20.50;;;4.60;66.40;;;;;;4980049;28;20034;-79
2021/12/20 08:55:20;;;;;;;32.43;20.47;;;4.60;66.40;;;;;;4978589;28;20023;-79
2021/12/20 08:57:46;;;;;;;35.00;20.27;;;4.70;66.40;;;;;;4977764;28;20820;-79
2021/12/20 09:00:19;;;;;;;32.57;19.37;;;4.70;66.10;;;;;;4959441;28;20118;-79
2021/12/20 09:02:45;;;;;;;34.83;20.00;;;4.70;66.00;;;;;;4981855;28;20149;-79
2021/12/20 09:05:11;;;;;;;33.37;21.57;;;4.70;65.90;;;;;;4976775;28;20098;-79
2021/12/20 09:07:40;;;;;;;29.67;19.23;;;4.70;65.90;;;;;;4972641;28;20062;-79
2021/12/20 09:10:06;;;;;;;30.67;19.57;;;4.70;65.80;;;;;;4966213;28;20039;-79
2021/12/20 09:12:32;;;;;;;33.77;21.43;;;4.70;66.20;;;;;;4978098;28;20022;-81
2021/12/20 09:14:58;;;;;;;28.23;18.93;;;4.80;66.30;;;;;;4978108;28;20034;-79
2021/12/20 09:17:23;;;;;;;32.27;20.57;;;4.80;66.20;;;;;;4967774;28;20755;-79
2021/12/20 09:19:51;;;;;;;31.83;20.87;;;4.90;66.10;;;;;;4980604;28;20044;-79
2021/12/20 09:22:17;;;;;;;31.30;20.73;;;4.90;66.20;;;;;;4991008;28;20067;-79
2021/12/20 09:24:44;;;;;;;30.27;19.17;;;5.00;66.30;;;;;;4963879;28;20159;-79
2021/12/20 09:27:10;;;;;;;29.17;19.73;;;5.10;66.20;;;;;;4980141;28;20041;-79
2021/12/20 09:29:36;;;;;;;31.63;20.17;;;5.10;66.10;;;;;;4987655;28;20030;-79
2021/12/20 09:32:03;;;;;;;29.03;18.93;;;5.10;66.00;;;;;;4980106;28;20432;-79
2021/12/20 09:34:29;;;;;;;30.00;18.63;;;5.20;65.90;;;;;;4971064;28;20051;-79
2021/12/20 09:36:55;;;;;;;28.90;18.03;;;5.30;65.80;;;;;;4976069;28;20073;-79
2021/12/20 09:39:22;;;;;;;28.20;18.00;;;5.30;65.70;;;;;;4976785;28;20030;-79
2021/12/20 09:44:14;;;;;;;29.60;18.77;;;5.40;65.40;;;;;;4975305;28;20125;-79
2021/12/20 09:46:40;;;;;;;26.83;17.80;;;5.40;65.30;;;;;;4958250;28;20035;-79
2021/12/20 09:49:08;;;;;;;28.77;18.80;;;5.50;65.10;;;;;;4958496;28;20425;-79
2021/12/20 09:51:36;;;;;;;26.80;17.67;;;5.50;65.10;;;;;;4958216;28;20390;-79
2021/12/20 09:54:01;;;;;;;27.37;18.53;;;5.50;65.00;;;;;;4965412;28;20030;-79
2021/12/20 09:56:28;;;;;;;25.70;18.17;;;5.60;65.00;;;;;;4989166;28;20531;-79
2021/12/20 09:58:57;;;;;;;29.67;19.33;;;5.70;64.90;;;;;;4972082;28;20038;-79
2021/12/20 10:01:25;;;;;;;29.67;18.80;;;5.70;64.80;;;;;;4991667;28;20062;-79
2021/12/20 10:03:55;;;;;;;26.33;17.03;;;5.80;64.50;;;;;;4990440;28;20084;-79
2021/12/20 10:06:21;;;;;;;36.33;22.33;;;5.70;64.40;;;;;;4965779;28;20038;-79
2021/12/20 10:08:52;;;;;;;27.90;18.43;;;5.70;64.60;;;;;;4982278;28;20034;-79
2021/12/20 10:11:23;;;;;;;27.00;17.40;;;5.80;64.90;;;;;;4971671;28;20037;-79
2021/12/20 10:14:00;;;;;;;26.90;16.50;;;6.00;64.70;;;;;;4967886;28;20050;-79
2021/12/20 10:16:26;;;;;;;24.30;16.00;;;6.00;64.30;;;;;;4980257;28;20157;-79
2021/12/20 10:18:52;;;;;;;25.67;17.10;;;6.00;64.50;;;;;;4978282;28;20521;-80
2021/12/20 10:21:18;;;;;;;27.70;18.40;;;6.10;64.10;;;;;;4958370;28;20034;-81
2021/12/20 10:23:47;;;;;;;28.80;16.57;;;6.10;63.80;;;;;;4982973;28;20054;-80
2021/12/20 10:26:15;;;;;;;26.03;16.93;;;6.10;63.70;;;;;;4992097;28;20117;-80
2021/12/20 10:28:42;;;;;;;25.77;17.70;;;6.10;63.90;;;;;;4967864;28;20065;-79
2021/12/20 10:31:10;;;;;;;30.80;17.20;;;6.20;63.80;;;;;;4979945;28;20022;-79
2021/12/20 10:33:37;;;;;;;27.17;17.90;;;6.30;63.70;;;;;;4985442;28;20458;-80
2021/12/20 10:36:10;;;;;;;24.93;16.60;;;6.30;63.50;;;;;;4980123;28;20105;-80
2021/12/20 10:38:39;;;;;;;23.07;15.80;;;6.40;63.30;;;;;;4962805;28;20371;-80
2021/12/20 10:41:12;;;;;;;26.90;17.40;;;6.50;63.10;;;;;;4957711;28;20031;-79
2021/12/20 10:43:45;;;;;;;23.65;16.17;;;6.50;62.80;;;;;;4958608;28;20506;-80
2021/12/20 10:46:14;;;;;;;25.83;16.27;;;6.50;62.60;;;;;;4964004;28;20044;-80
2021/12/20 10:48:40;;;;;;;25.03;16.83;;;6.50;62.40;;;;;;4984392;28;20033;-80
2021/12/20 10:51:16;;;;;;;24.23;16.77;;;6.50;62.40;;;;;;4957368;28;20757;-80
2021/12/20 10:53:51;;;;;;;27.23;17.17;;;6.60;62.10;;;;;;4982938;28;20117;-81
2021/12/20 10:56:18;;;;;;;24.77;15.80;;;6.60;61.80;;;;;;4963656;28;20553;-81
2021/12/20 10:58:44;;;;;;;26.60;15.93;;;6.60;61.70;;;;;;4971047;28;20122;-81
2021/12/20 11:04:12;;;;;;;24.53;16.90;;;6.70;61.80;;;;;;4982847;28;20057;-81
2021/12/20 11:09:15;;;;;;;24.23;15.27;;;7.30;61.50;;;;;;4980715;28;20023;-81
2021/12/20 11:11:45;;;;;;;20.17;15.10;;;7.60;60.80;;;;;;4983650;28;20054;-81
2021/12/20 11:14:11;;;;;;;22.67;14.63;;;8.00;60.40;;;;;;4974914;28;20046;-81
2021/12/20 11:16:41;;;;;;;21.83;14.20;;;8.30;59.70;;;;;;4986048;28;20467;-81
2021/12/20 11:19:08;;;;;;;18.47;13.37;;;8.40;58.90;;;;;;4976756;28;20037;-82
2021/12/20 11:21:44;;;;;;;19.57;13.37;;;8.40;58.40;;;;;;4993565;28;20050;-81
2021/12/20 11:24:16;;;;;;;19.87;14.20;;;8.50;58.30;;;;;;4974395;28;20054;-82
2021/12/20 11:26:42;;;;;;;19.63;14.20;;;8.70;57.80;;;;;;4984250;28;20052;-82
2021/12/20 11:29:09;;;;;;;17.60;12.43;;;8.70;57.10;;;;;;4994082;28;20026;-82
2021/12/20 11:31:37;;;;;;;27.57;15.67;;;8.70;57.30;;;;;;4976360;28;20069;-81
2021/12/20 11:34:03;;;;;;;19.10;13.70;;;8.80;57.20;;;;;;4976307;28;20030;-82
2021/12/20 11:36:29;;;;;;;19.93;13.50;;;8.90;56.70;;;;;;4968114;28;20022;-82
2021/12/20 11:38:58;;;;;;;20.63;14.40;;;9.00;56.80;;;;;;4972940;28;20490;-82
2021/12/20 11:41:29;;;;;;;20.20;13.73;;;9.00;56.30;;;;;;4957013;28;20027;-81
2021/12/20 11:43:55;;;;;;;24.43;14.40;;;8.90;56.30;;;;;;4984263;28;20222;-81
2021/12/20 11:46:28;;;;;;;20.20;13.63;;;8.90;56.20;;;;;;4993196;28;20390;-81
2021/12/20 11:48:55;;;;;;;16.23;12.60;;;8.90;56.20;;;;;;4993724;28;20027;-82
2021/12/20 11:51:21;;;;;;;18.17;12.80;;;9.00;55.70;;;;;;4977062;28;20031;-81
2021/12/20 11:53:47;;;;;;;19.27;13.77;;;8.90;55.40;;;;;;4971056;28;20455;-82
2021/12/20 11:56:13;;;;;;;18.93;13.60;;;8.70;55.40;;;;;;4960815;28;20058;-82
2021/12/20 11:58:46;;;;;;;16.23;12.23;;;8.60;55.50;;;;;;4957318;28;20489;-81
2021/12/20 12:01:18;;;;;;;20.43;12.57;;;8.40;55.50;;;;;;4957012;28;20062;-81
2021/12/20 12:03:58;;;;;;;16.52;12.25;;;8.30;55.60;;;;;;4962420;28;20039;-81
2021/12/20 12:06:30;;;;;;;20.77;12.33;;;8.30;55.90;;;;;;4961597;28;20125;-81
2021/12/20 12:08:59;;;;;;;17.97;13.00;;;8.60;55.90;;;;;;4957186;28;20034;-81
2021/12/20 12:11:24;;;;;;;19.43;13.23;;;8.70;55.30;;;;;;4964239;28;20072;-81
2021/12/20 12:14:02;;;;;;;32.17;16.23;;;8.60;55.20;;;;;;4965381;28;20101;-81
2021/12/20 12:16:57;;;;;;;25.23;15.27;;;8.60;55.10;;;;;;4964376;28;20030;-81
2021/12/20 12:19:42;;;;;;;26.07;15.67;;;8.50;55.20;;;;;;4975297;28;20149;-81
2021/12/20 12:22:26;;;;;;;25.27;15.17;;;8.40;55.50;;;;;;4962281;28;20027;-81
2021/12/20 12:24:54;;;;;;;37.43;14.43;;;8.30;55.60;;;;;;4974036;28;20106;-81
2021/12/20 12:27:24;;;;;;;23.27;13.90;;;8.20;55.90;;;;;;4988524;28;20060;-81
2021/12/20 12:30:14;;;;;;;30.07;15.30;;;8.20;55.90;;;;;;4976203;28;20031;-81
2021/12/20 12:32:49;;;;;;;35.53;14.73;;;8.10;56.00;;;;;;4974145;28;20489;-81
2021/12/20 12:35:39;;;;;;;29.00;15.57;;;8.10;56.10;;;;;;4973588;28;20426;-81
2021/12/20 12:38:17;;;;;;;24.67;14.83;;;8.00;56.20;;;;;;4967298;28;20104;-81
2021/12/20 12:40:48;;;;;;;24.23;15.37;;;8.00;56.30;;;;;;4972534;28;20031;-81
2021/12/20 12:43:16;;;;;;;25.40;15.73;;;8.00;56.40;;;;;;4973726;28;20050;-81
2021/12/20 12:45:56;;;;;;;26.10;16.80;;;8.00;56.40;;;;;;4971718;28;20556;-81
2021/12/20 12:48:49;;;;;;;24.27;15.43;;;8.00;56.50;;;;;;4960924;28;20030;-81
2021/12/20 12:51:20;;;;;;;31.05;14.68;;;8.10;56.30;;;;;;4956211;28;20074;-81
2021/12/20 12:53:55;;;;;;;26.77;15.70;;;8.10;56.00;;;;;;4990856;28;20037;-81
2021/12/20 12:56:26;;;;;;;28.80;15.67;;;8.10;56.10;;;;;;4975613;28;20042;-81
2021/12/20 12:59:14;;;;;;;27.83;14.83;;;8.00;56.20;;;;;;4995224;28;20417;-81
2021/12/20 13:01:48;;;;;;;23.57;14.57;;;8.10;56.30;;;;;;4978873;28;20039;-81
2021/12/20 13:04:14;;;;;;;22.33;14.73;;;8.20;56.30;;;;;;4973564;28;20121;-81